METAR Formatted Surface Weather Observation
Issued by NWS

Home | Current Version | Previous Version | Text Only | Print | Product List | Glossary On
Versions: 1 2 3 4 5 6 7 8 9 10 11 12 13 14 15 16 17 18 19 20 21 22
257
SAUS41 KAKQ 172055
MTRNUI
METAR KNUI 172053Z AUTO 14004KT 10SM OVC070 12/09 A3002 RMK AO2
RAB1955E31 SLP164 P0000 60000 T01170094 56023



USA.gov is the U.S. government's official web portal to all federal, state and local government web resources and services.